sensor_id;sensor_type;location;lat;lon;timestamp;P1;durP1;ratioP1;P2;durP2;ratioP2
11510;SDS011;5812;48.864;9.190;2022-11-27T00:00:32;20.33;;;20.23;;
11510;SDS011;5812;48.864;9.190;2022-11-27T00:02:57;19.90;;;19.80;;
11510;SDS011;5812;48.864;9.190;2022-11-27T00:05:23;18.87;;;18.77;;
11510;SDS011;5812;48.864;9.190;2022-11-27T00:07:48;18.23;;;18.13;;
11510;SDS011;5812;48.864;9.190;2022-11-27T00:10:14;17.87;;;17.77;;
11510;SDS011;5812;48.864;9.190;2022-11-27T00:12:40;17.37;;;17.27;;
11510;SDS011;5812;48.864;9.190;2022-11-27T00:15:05;18.37;;;18.27;;
11510;SDS011;5812;48.864;9.190;2022-11-27T00:17:31;18.07;;;17.97;;
11510;SDS011;5812;48.864;9.190;2022-11-27T00:19:57;17.07;;;16.97;;
11510;SDS011;5812;48.864;9.190;2022-11-27T00:22:22;17.33;;;17.23;;
11510;SDS011;5812;48.864;9.190;2022-11-27T00:24:50;17.07;;;16.97;;
11510;SDS011;5812;48.864;9.190;2022-11-27T00:27:16;16.83;;;16.73;;
11510;SDS011;5812;48.864;9.190;2022-11-27T00:29:41;16.43;;;16.33;;
11510;SDS011;5812;48.864;9.190;2022-11-27T00:32:07;16.00;;;15.90;;
11510;SDS011;5812;48.864;9.190;2022-11-27T00:34:33;17.70;;;17.60;;
11510;SDS011;5812;48.864;9.190;2022-11-27T00:36:59;17.03;;;16.93;;
11510;SDS011;5812;48.864;9.190;2022-11-27T00:39:24;16.43;;;16.33;;
11510;SDS011;5812;48.864;9.190;2022-11-27T00:41:51;16.80;;;16.70;;
11510;SDS011;5812;48.864;9.190;2022-11-27T00:44:17;16.60;;;16.50;;
11510;SDS011;5812;48.864;9.190;2022-11-27T00:46:43;16.57;;;16.47;;
11510;SDS011;5812;48.864;9.190;2022-11-27T00:49:09;15.77;;;15.67;;
11510;SDS011;5812;48.864;9.190;2022-11-27T00:51:37;16.17;;;16.07;;
11510;SDS011;5812;48.864;9.190;2022-11-27T00:54:02;16.90;;;16.80;;
11510;SDS011;5812;48.864;9.190;2022-11-27T00:56:29;16.60;;;16.50;;
11510;SDS011;5812;48.864;9.190;2022-11-27T00:58:57;18.47;;;18.37;;
11510;SDS011;5812;48.864;9.190;2022-11-27T01:01:24;15.97;;;15.87;;
11510;SDS011;5812;48.864;9.190;2022-11-27T01:03:53;16.90;;;16.80;;
11510;SDS011;5812;48.864;9.190;2022-11-27T01:06:19;16.97;;;16.87;;
11510;SDS011;5812;48.864;9.190;2022-11-27T01:08:45;16.13;;;16.03;;
11510;SDS011;5812;48.864;9.190;2022-11-27T01:11:12;17.27;;;17.17;;
11510;SDS011;5812;48.864;9.190;2022-11-27T01:13:40;16.70;;;16.60;;
11510;SDS011;5812;48.864;9.190;2022-11-27T01:16:07;17.33;;;17.23;;
11510;SDS011;5812;48.864;9.190;2022-11-27T01:18:35;17.57;;;17.47;;
11510;SDS011;5812;48.864;9.190;2022-11-27T01:21:02;16.37;;;16.27;;
11510;SDS011;5812;48.864;9.190;2022-11-27T01:23:29;18.03;;;17.93;;
11510;SDS011;5812;48.864;9.190;2022-11-27T01:25:55;17.50;;;17.40;;
11510;SDS011;5812;48.864;9.190;2022-11-27T01:28:21;17.93;;;17.83;;
11510;SDS011;5812;48.864;9.190;2022-11-27T01:30:48;17.53;;;17.43;;
11510;SDS011;5812;48.864;9.190;2022-11-27T01:33:14;18.63;;;18.53;;
11510;SDS011;5812;48.864;9.190;2022-11-27T01:35:40;18.13;;;18.03;;
11510;SDS011;5812;48.864;9.190;2022-11-27T01:38:05;17.40;;;17.30;;
11510;SDS011;5812;48.864;9.190;2022-11-27T01:40:31;18.27;;;18.17;;
11510;SDS011;5812;48.864;9.190;2022-11-27T01:42:57;16.80;;;16.70;;
11510;SDS011;5812;48.864;9.190;2022-11-27T01:45:23;17.03;;;16.93;;
11510;SDS011;5812;48.864;9.190;2022-11-27T01:47:50;17.57;;;17.47;;
11510;SDS011;5812;48.864;9.190;2022-11-27T01:50:21;17.87;;;17.77;;
11510;SDS011;5812;48.864;9.190;2022-11-27T01:52:53;19.53;;;19.43;;
11510;SDS011;5812;48.864;9.190;2022-11-27T01:55:31;19.27;;;19.17;;
11510;SDS011;5812;48.864;9.190;2022-11-27T01:58:05;18.03;;;17.93;;
11510;SDS011;5812;48.864;9.190;2022-11-27T02:00:33;17.63;;;17.53;;
11510;SDS011;5812;48.864;9.190;2022-11-27T02:02:59;19.97;;;19.87;;
11510;SDS011;5812;48.864;9.190;2022-11-27T02:05:25;21.80;;;21.60;;
11510;SDS011;5812;48.864;9.190;2022-11-27T02:07:53;19.83;;;19.73;;
11510;SDS011;5812;48.864;9.190;2022-11-27T02:11:08;20.87;;;20.77;;
11510;SDS011;5812;48.864;9.190;2022-11-27T02:18:31;18.27;;;18.17;;
11510;SDS011;5812;48.864;9.190;2022-11-27T02:21:21;20.07;;;19.97;;
11510;SDS011;5812;48.864;9.190;2022-11-27T02:23:55;20.03;;;19.83;;
11510;SDS011;5812;48.864;9.190;2022-11-27T02:26:50;19.30;;;19.20;;
11510;SDS011;5812;48.864;9.190;2022-11-27T02:29:36;18.70;;;18.60;;
11510;SDS011;5812;48.864;9.190;2022-11-27T02:32:22;20.40;;;20.30;;
11510;SDS011;5812;48.864;9.190;2022-11-27T02:35:03;19.57;;;19.47;;
11510;SDS011;5812;48.864;9.190;2022-11-27T02:37:40;19.90;;;19.77;;
11510;SDS011;5812;48.864;9.190;2022-11-27T02:45:17;18.87;;;18.77;;
11510;SDS011;5812;48.864;9.190;2022-11-27T02:47:47;19.87;;;19.77;;
11510;SDS011;5812;48.864;9.190;2022-11-27T02:50:18;20.77;;;20.57;;
11510;SDS011;5812;48.864;9.190;2022-11-27T02:52:45;19.23;;;19.13;;
11510;SDS011;5812;48.864;9.190;2022-11-27T02:55:14;19.80;;;19.70;;
11510;SDS011;5812;48.864;9.190;2022-11-27T02:57:43;18.07;;;17.97;;
11510;SDS011;5812;48.864;9.190;2022-11-27T03:00:10;18.03;;;17.93;;
11510;SDS011;5812;48.864;9.190;2022-11-27T03:02:38;19.43;;;19.33;;
11510;SDS011;5812;48.864;9.190;2022-11-27T03:05:12;20.57;;;20.47;;
11510;SDS011;5812;48.864;9.190;2022-11-27T03:07:43;18.77;;;18.67;;
11510;SDS011;5812;48.864;9.190;2022-11-27T03:10:23;19.07;;;18.97;;
11510;SDS011;5812;48.864;9.190;2022-11-27T03:12:55;18.87;;;18.77;;
11510;SDS011;5812;48.864;9.190;2022-11-27T03:15:21;19.53;;;19.43;;
11510;SDS011;5812;48.864;9.190;2022-11-27T03:17:53;17.80;;;17.70;;
11510;SDS011;5812;48.864;9.190;2022-11-27T03:20:30;16.73;;;16.63;;
11510;SDS011;5812;48.864;9.190;2022-11-27T03:23:01;18.73;;;18.63;;
11510;SDS011;5812;48.864;9.190;2022-11-27T03:25:27;16.27;;;16.17;;
11510;SDS011;5812;48.864;9.190;2022-11-27T03:27:54;17.27;;;17.17;;
11510;SDS011;5812;48.864;9.190;2022-11-27T03:30:23;16.40;;;16.30;;
11510;SDS011;5812;48.864;9.190;2022-11-27T03:32:48;16.90;;;16.80;;
11510;SDS011;5812;48.864;9.190;2022-11-27T03:35:15;16.53;;;16.43;;
11510;SDS011;5812;48.864;9.190;2022-11-27T03:37:44;17.03;;;16.93;;
11510;SDS011;5812;48.864;9.190;2022-11-27T03:40:10;16.83;;;16.73;;
11510;SDS011;5812;48.864;9.190;2022-11-27T03:47:47;15.50;;;15.40;;
11510;SDS011;5812;48.864;9.190;2022-11-27T03:50:32;17.40;;;17.30;;
11510;SDS011;5812;48.864;9.190;2022-11-27T03:53:18;16.83;;;16.73;;
11510;SDS011;5812;48.864;9.190;2022-11-27T03:58:37;16.87;;;16.77;;
11510;SDS011;5812;48.864;9.190;2022-11-27T04:01:27;15.60;;;15.50;;
11510;SDS011;5812;48.864;9.190;2022-11-27T04:03:54;16.97;;;16.87;;
11510;SDS011;5812;48.864;9.190;2022-11-27T04:06:19;16.77;;;16.67;;
11510;SDS011;5812;48.864;9.190;2022-11-27T04:08:45;17.77;;;17.67;;
11510;SDS011;5812;48.864;9.190;2022-11-27T04:11:11;17.23;;;17.13;;
11510;SDS011;5812;48.864;9.190;2022-11-27T04:13:37;18.33;;;18.23;;
11510;SDS011;5812;48.864;9.190;2022-11-27T04:16:03;17.60;;;17.50;;
11510;SDS011;5812;48.864;9.190;2022-11-27T04:18:29;19.17;;;19.07;;
11510;SDS011;5812;48.864;9.190;2022-11-27T04:20:55;19.53;;;19.43;;
11510;SDS011;5812;48.864;9.190;2022-11-27T04:23:21;17.80;;;17.70;;
11510;SDS011;5812;48.864;9.190;2022-11-27T04:25:47;18.03;;;17.93;;
11510;SDS011;5812;48.864;9.190;2022-11-27T04:28:13;18.90;;;18.80;;
11510;SDS011;5812;48.864;9.190;2022-11-27T04:30:38;16.87;;;16.77;;
11510;SDS011;5812;48.864;9.190;2022-11-27T04:33:04;19.63;;;19.53;;
11510;SDS011;5812;48.864;9.190;2022-11-27T04:35:30;18.23;;;18.13;;
11510;SDS011;5812;48.864;9.190;2022-11-27T04:37:55;17.90;;;17.80;;
11510;SDS011;5812;48.864;9.190;2022-11-27T04:40:22;18.93;;;18.83;;
11510;SDS011;5812;48.864;9.190;2022-11-27T04:42:47;17.70;;;17.60;;
11510;SDS011;5812;48.864;9.190;2022-11-27T04:45:13;18.80;;;18.70;;
11510;SDS011;5812;48.864;9.190;2022-11-27T04:47:39;19.97;;;19.87;;
11510;SDS011;5812;48.864;9.190;2022-11-27T04:50:04;20.27;;;20.07;;
11510;SDS011;5812;48.864;9.190;2022-11-27T04:52:30;18.83;;;18.63;;
11510;SDS011;5812;48.864;9.190;2022-11-27T04:54:56;22.30;;;22.00;;
11510;SDS011;5812;48.864;9.190;2022-11-27T04:57:22;19.43;;;19.13;;
11510;SDS011;5812;48.864;9.190;2022-11-27T04:59:47;20.40;;;20.20;;
11510;SDS011;5812;48.864;9.190;2022-11-27T05:02:13;21.90;;;21.37;;
11510;SDS011;5812;48.864;9.190;2022-11-27T05:04:39;22.07;;;21.60;;
11510;SDS011;5812;48.864;9.190;2022-11-27T05:07:04;21.53;;;21.23;;
11510;SDS011;5812;48.864;9.190;2022-11-27T05:09:30;21.27;;;20.97;;
11510;SDS011;5812;48.864;9.190;2022-11-27T05:11:55;19.10;;;19.00;;
11510;SDS011;5812;48.864;9.190;2022-11-27T05:14:21;17.03;;;16.93;;
11510;SDS011;5812;48.864;9.190;2022-11-27T05:16:52;19.97;;;19.87;;
11510;SDS011;5812;48.864;9.190;2022-11-27T05:19:19;18.40;;;18.30;;
11510;SDS011;5812;48.864;9.190;2022-11-27T05:21:46;19.50;;;19.30;;
11510;SDS011;5812;48.864;9.190;2022-11-27T05:24:13;16.67;;;16.57;;
11510;SDS011;5812;48.864;9.190;2022-11-27T05:26:40;17.23;;;17.13;;
11510;SDS011;5812;48.864;9.190;2022-11-27T05:29:06;16.73;;;16.63;;
11510;SDS011;5812;48.864;9.190;2022-11-27T05:31:33;16.77;;;16.67;;
11510;SDS011;5812;48.864;9.190;2022-11-27T05:33:59;16.70;;;16.60;;
11510;SDS011;5812;48.864;9.190;2022-11-27T05:36:26;15.50;;;15.40;;
11510;SDS011;5812;48.864;9.190;2022-11-27T05:38:52;15.30;;;15.20;;
11510;SDS011;5812;48.864;9.190;2022-11-27T05:41:18;16.00;;;15.90;;
11510;SDS011;5812;48.864;9.190;2022-11-27T05:43:44;19.90;;;19.60;;
11510;SDS011;5812;48.864;9.190;2022-11-27T05:46:10;15.57;;;15.47;;
11510;SDS011;5812;48.864;9.190;2022-11-27T05:48:38;16.77;;;16.67;;
11510;SDS011;5812;48.864;9.190;2022-11-27T05:51:04;15.77;;;15.67;;
11510;SDS011;5812;48.864;9.190;2022-11-27T05:53:30;15.20;;;15.10;;
11510;SDS011;5812;48.864;9.190;2022-11-27T05:56:03;14.70;;;14.60;;
11510;SDS011;5812;48.864;9.190;2022-11-27T05:58:30;15.77;;;15.57;;
11510;SDS011;5812;48.864;9.190;2022-11-27T06:00:56;14.93;;;14.73;;
11510;SDS011;5812;48.864;9.190;2022-11-27T06:03:23;16.23;;;16.03;;
11510;SDS011;5812;48.864;9.190;2022-11-27T06:05:49;16.37;;;16.27;;
11510;SDS011;5812;48.864;9.190;2022-11-27T06:08:15;16.40;;;16.20;;
11510;SDS011;5812;48.864;9.190;2022-11-27T06:10:40;16.63;;;16.53;;
11510;SDS011;5812;48.864;9.190;2022-11-27T06:13:06;13.50;;;13.40;;
11510;SDS011;5812;48.864;9.190;2022-11-27T06:15:31;14.23;;;14.13;;
11510;SDS011;5812;48.864;9.190;2022-11-27T06:17:57;14.60;;;14.50;;
11510;SDS011;5812;48.864;9.190;2022-11-27T06:20:23;14.73;;;14.63;;
11510;SDS011;5812;48.864;9.190;2022-11-27T06:22:49;13.53;;;13.43;;
11510;SDS011;5812;48.864;9.190;2022-11-27T06:25:15;14.90;;;14.80;;
11510;SDS011;5812;48.864;9.190;2022-11-27T06:27:40;15.17;;;15.07;;
11510;SDS011;5812;48.864;9.190;2022-11-27T06:30:06;14.40;;;14.30;;
11510;SDS011;5812;48.864;9.190;2022-11-27T06:32:32;15.20;;;15.10;;
11510;SDS011;5812;48.864;9.190;2022-11-27T06:34:58;14.97;;;14.87;;
11510;SDS011;5812;48.864;9.190;2022-11-27T06:37:23;14.23;;;14.13;;
11510;SDS011;5812;48.864;9.190;2022-11-27T06:39:49;15.07;;;14.97;;
11510;SDS011;5812;48.864;9.190;2022-11-27T06:42:15;13.20;;;13.10;;
11510;SDS011;5812;48.864;9.190;2022-11-27T06:44:41;13.80;;;13.70;;
11510;SDS011;5812;48.864;9.190;2022-11-27T06:47:06;13.80;;;13.70;;
11510;SDS011;5812;48.864;9.190;2022-11-27T06:49:33;12.90;;;12.90;;
11510;SDS011;5812;48.864;9.190;2022-11-27T06:51:59;13.87;;;13.77;;
11510;SDS011;5812;48.864;9.190;2022-11-27T06:54:24;13.97;;;13.87;;
11510;SDS011;5812;48.864;9.190;2022-11-27T06:56:50;13.00;;;12.90;;
11510;SDS011;5812;48.864;9.190;2022-11-27T06:59:16;12.90;;;12.80;;
11510;SDS011;5812;48.864;9.190;2022-11-27T07:01:42;14.57;;;14.47;;
11510;SDS011;5812;48.864;9.190;2022-11-27T07:04:12;14.43;;;14.40;;
11510;SDS011;5812;48.864;9.190;2022-11-27T07:06:38;15.17;;;15.07;;
11510;SDS011;5812;48.864;9.190;2022-11-27T07:09:05;14.03;;;13.93;;
11510;SDS011;5812;48.864;9.190;2022-11-27T07:11:31;13.80;;;13.70;;
11510;SDS011;5812;48.864;9.190;2022-11-27T07:13:59;13.17;;;13.07;;
11510;SDS011;5812;48.864;9.190;2022-11-27T07:16:26;13.33;;;13.23;;
11510;SDS011;5812;48.864;9.190;2022-11-27T07:18:56;15.10;;;15.00;;
11510;SDS011;5812;48.864;9.190;2022-11-27T07:21:23;14.00;;;13.90;;
11510;SDS011;5812;48.864;9.190;2022-11-27T07:23:49;14.50;;;14.40;;
11510;SDS011;5812;48.864;9.190;2022-11-27T07:26:16;14.47;;;14.37;;
11510;SDS011;5812;48.864;9.190;2022-11-27T07:28:43;14.53;;;14.43;;
11510;SDS011;5812;48.864;9.190;2022-11-27T07:31:10;13.67;;;13.57;;
11510;SDS011;5812;48.864;9.190;2022-11-27T07:33:37;14.03;;;13.93;;
11510;SDS011;5812;48.864;9.190;2022-11-27T07:36:04;14.37;;;14.27;;
11510;SDS011;5812;48.864;9.190;2022-11-27T07:38:32;14.93;;;14.83;;
11510;SDS011;5812;48.864;9.190;2022-11-27T07:40:59;15.70;;;15.60;;
11510;SDS011;5812;48.864;9.190;2022-11-27T07:43:28;15.43;;;15.33;;
11510;SDS011;5812;48.864;9.190;2022-11-27T07:45:54;16.03;;;15.93;;
11510;SDS011;5812;48.864;9.190;2022-11-27T07:48:20;17.10;;;17.00;;
11510;SDS011;5812;48.864;9.190;2022-11-27T07:50:45;15.67;;;15.57;;
11510;SDS011;5812;48.864;9.190;2022-11-27T07:53:11;15.70;;;15.60;;
11510;SDS011;5812;48.864;9.190;2022-11-27T07:55:37;15.30;;;15.20;;
11510;SDS011;5812;48.864;9.190;2022-11-27T07:58:03;14.70;;;14.60;;
11510;SDS011;5812;48.864;9.190;2022-11-27T08:00:29;16.03;;;15.93;;
11510;SDS011;5812;48.864;9.190;2022-11-27T08:02:55;15.30;;;15.20;;
11510;SDS011;5812;48.864;9.190;2022-11-27T08:05:20;15.53;;;15.43;;
11510;SDS011;5812;48.864;9.190;2022-11-27T08:07:46;15.07;;;14.97;;
11510;SDS011;5812;48.864;9.190;2022-11-27T08:10:11;15.23;;;15.13;;
11510;SDS011;5812;48.864;9.190;2022-11-27T08:12:37;15.80;;;15.70;;
11510;SDS011;5812;48.864;9.190;2022-11-27T08:15:03;15.53;;;15.43;;
11510;SDS011;5812;48.864;9.190;2022-11-27T08:17:29;14.37;;;14.27;;
11510;SDS011;5812;48.864;9.190;2022-11-27T08:19:55;15.40;;;15.30;;
11510;SDS011;5812;48.864;9.190;2022-11-27T08:22:20;15.13;;;15.03;;
11510;SDS011;5812;48.864;9.190;2022-11-27T08:24:46;15.57;;;15.47;;
11510;SDS011;5812;48.864;9.190;2022-11-27T08:27:12;15.27;;;15.17;;
11510;SDS011;5812;48.864;9.190;2022-11-27T08:29:39;15.13;;;15.03;;
11510;SDS011;5812;48.864;9.190;2022-11-27T08:32:04;16.07;;;15.97;;
11510;SDS011;5812;48.864;9.190;2022-11-27T08:34:30;15.93;;;15.83;;
11510;SDS011;5812;48.864;9.190;2022-11-27T08:36:56;16.07;;;15.97;;
11510;SDS011;5812;48.864;9.190;2022-11-27T08:39:22;15.73;;;15.63;;
11510;SDS011;5812;48.864;9.190;2022-11-27T08:41:47;17.60;;;17.50;;
11510;SDS011;5812;48.864;9.190;2022-11-27T08:44:13;15.40;;;15.30;;
11510;SDS011;5812;48.864;9.190;2022-11-27T08:46:38;15.03;;;14.93;;
11510;SDS011;5812;48.864;9.190;2022-11-27T08:49:04;14.37;;;14.27;;
11510;SDS011;5812;48.864;9.190;2022-11-27T08:51:29;14.13;;;14.03;;
11510;SDS011;5812;48.864;9.190;2022-11-27T08:53:55;14.43;;;14.33;;
11510;SDS011;5812;48.864;9.190;2022-11-27T08:56:21;14.07;;;13.97;;
11510;SDS011;5812;48.864;9.190;2022-11-27T08:58:48;15.37;;;15.27;;
11510;SDS011;5812;48.864;9.190;2022-11-27T09:01:15;15.07;;;14.97;;
11510;SDS011;5812;48.864;9.190;2022-11-27T09:03:42;13.37;;;13.27;;
11510;SDS011;5812;48.864;9.190;2022-11-27T09:06:09;13.83;;;13.83;;
11510;SDS011;5812;48.864;9.190;2022-11-27T09:08:38;12.57;;;12.57;;
11510;SDS011;5812;48.864;9.190;2022-11-27T09:11:04;13.13;;;13.10;;
11510;SDS011;5812;48.864;9.190;2022-11-27T09:13:30;12.77;;;12.67;;
11510;SDS011;5812;48.864;9.190;2022-11-27T09:15:56;11.07;;;11.07;;
11510;SDS011;5812;48.864;9.190;2022-11-27T09:18:22;12.60;;;12.50;;
11510;SDS011;5812;48.864;9.190;2022-11-27T09:20:55;12.33;;;12.30;;
11510;SDS011;5812;48.864;9.190;2022-11-27T09:23:26;12.60;;;12.60;;
11510;SDS011;5812;48.864;9.190;2022-11-27T09:25:59;13.50;;;13.40;;
11510;SDS011;5812;48.864;9.190;2022-11-27T09:28:30;12.53;;;12.53;;
11510;SDS011;5812;48.864;9.190;2022-11-27T09:30:57;12.87;;;12.80;;
11510;SDS011;5812;48.864;9.190;2022-11-27T09:33:25;14.33;;;14.23;;
11510;SDS011;5812;48.864;9.190;2022-11-27T09:35:51;13.67;;;13.57;;
11510;SDS011;5812;48.864;9.190;2022-11-27T09:38:17;13.30;;;13.30;;
11510;SDS011;5812;48.864;9.190;2022-11-27T09:40:46;12.83;;;12.83;;
11510;SDS011;5812;48.864;9.190;2022-11-27T09:43:14;10.93;;;10.93;;
11510;SDS011;5812;48.864;9.190;2022-11-27T09:45:45;10.37;;;10.37;;
11510;SDS011;5812;48.864;9.190;2022-11-27T09:48:18;10.57;;;10.57;;
11510;SDS011;5812;48.864;9.190;2022-11-27T09:50:51;10.60;;;10.60;;
11510;SDS011;5812;48.864;9.190;2022-11-27T09:56:36;12.70;;;12.70;;
11510;SDS011;5812;48.864;9.190;2022-11-27T09:59:03;14.27;;;14.17;;
11510;SDS011;5812;48.864;9.190;2022-11-27T10:01:38;12.03;;;12.03;;
11510;SDS011;5812;48.864;9.190;2022-11-27T10:04:04;11.83;;;11.83;;
11510;SDS011;5812;48.864;9.190;2022-11-27T10:17:55;7.93;;;7.93;;
11510;SDS011;5812;48.864;9.190;2022-11-27T10:21:12;7.80;;;7.80;;
11510;SDS011;5812;48.864;9.190;2022-11-27T10:23:23;7.57;;;7.57;;
11510;SDS011;5812;48.864;9.190;2022-11-27T10:26:16;7.20;;;7.20;;
11510;SDS011;5812;48.864;9.190;2022-11-27T10:28:52;8.50;;;8.50;;
11510;SDS011;5812;48.864;9.190;2022-11-27T10:36:45;7.97;;;7.97;;
11510;SDS011;5812;48.864;9.190;2022-11-27T10:42:07;6.00;;;6.00;;
11510;SDS011;5812;48.864;9.190;2022-11-27T10:44:38;4.67;;;4.67;;
11510;SDS011;5812;48.864;9.190;2022-11-27T10:47:09;5.33;;;5.33;;
11510;SDS011;5812;48.864;9.190;2022-11-27T10:49:38;4.70;;;4.70;;
11510;SDS011;5812;48.864;9.190;2022-11-27T10:52:07;4.70;;;4.70;;
11510;SDS011;5812;48.864;9.190;2022-11-27T10:54:37;4.00;;;4.00;;
11510;SDS011;5812;48.864;9.190;2022-11-27T11:02:36;2.97;;;2.97;;
11510;SDS011;5812;48.864;9.190;2022-11-27T11:05:15;3.20;;;3.20;;
11510;SDS011;5812;48.864;9.190;2022-11-27T11:13:22;3.27;;;3.27;;
11510;SDS011;5812;48.864;9.190;2022-11-27T11:18:20;3.30;;;3.30;;
11510;SDS011;5812;48.864;9.190;2022-11-27T11:20:49;3.53;;;3.53;;
11510;SDS011;5812;48.864;9.190;2022-11-27T11:23:19;4.50;;;4.50;;
11510;SDS011;5812;48.864;9.190;2022-11-27T11:25:55;4.60;;;4.60;;
11510;SDS011;5812;48.864;9.190;2022-11-27T11:28:23;3.30;;;3.30;;
11510;SDS011;5812;48.864;9.190;2022-11-27T11:30:51;2.90;;;2.90;;
11510;SDS011;5812;48.864;9.190;2022-11-27T11:33:23;3.10;;;3.10;;
11510;SDS011;5812;48.864;9.190;2022-11-27T11:35:51;3.37;;;3.37;;
11510;SDS011;5812;48.864;9.190;2022-11-27T11:38:18;3.80;;;3.80;;
11510;SDS011;5812;48.864;9.190;2022-11-27T11:40:57;3.77;;;3.77;;
11510;SDS011;5812;48.864;9.190;2022-11-27T11:43:35;3.57;;;3.57;;
11510;SDS011;5812;48.864;9.190;2022-11-27T11:46:05;3.70;;;3.70;;
11510;SDS011;5812;48.864;9.190;2022-11-27T11:48:39;3.30;;;3.30;;
11510;SDS011;5812;48.864;9.190;2022-11-27T11:51:19;3.10;;;3.10;;
11510;SDS011;5812;48.864;9.190;2022-11-27T11:56:42;3.70;;;3.70;;
11510;SDS011;5812;48.864;9.190;2022-11-27T12:19:01;3.83;;;3.83;;
11510;SDS011;5812;48.864;9.190;2022-11-27T12:22:00;3.25;;;3.25;;
11510;SDS011;5812;48.864;9.190;2022-11-27T12:30:13;4.25;;;4.25;;
11510;SDS011;5812;48.864;9.190;2022-11-27T12:38:14;3.63;;;3.63;;
11510;SDS011;5812;48.864;9.190;2022-11-27T12:43:42;4.73;;;4.73;;
11510;SDS011;5812;48.864;9.190;2022-11-27T12:46:32;3.67;;;3.67;;
11510;SDS011;5812;48.864;9.190;2022-11-27T12:49:21;3.67;;;3.67;;
11510;SDS011;5812;48.864;9.190;2022-11-27T12:51:52;3.97;;;3.97;;
11510;SDS011;5812;48.864;9.190;2022-11-27T12:54:36;3.90;;;3.90;;
11510;SDS011;5812;48.864;9.190;2022-11-27T12:57:27;4.23;;;4.23;;
11510;SDS011;5812;48.864;9.190;2022-11-27T13:00:03;3.67;;;3.67;;
11510;SDS011;5812;48.864;9.190;2022-11-27T13:02:37;3.67;;;3.67;;
11510;SDS011;5812;48.864;9.190;2022-11-27T13:05:15;3.83;;;3.83;;
11510;SDS011;5812;48.864;9.190;2022-11-27T13:07:57;4.20;;;4.20;;
11510;SDS011;5812;48.864;9.190;2022-11-27T13:10:37;3.70;;;3.70;;
11510;SDS011;5812;48.864;9.190;2022-11-27T13:13:09;4.00;;;4.00;;
11510;SDS011;5812;48.864;9.190;2022-11-27T13:15:56;4.10;;;4.10;;
11510;SDS011;5812;48.864;9.190;2022-11-27T13:18:34;4.97;;;4.97;;
11510;SDS011;5812;48.864;9.190;2022-11-27T13:21:23;4.53;;;4.53;;
11510;SDS011;5812;48.864;9.190;2022-11-27T13:23:52;5.10;;;5.10;;
11510;SDS011;5812;48.864;9.190;2022-11-27T13:26:19;4.73;;;4.73;;
11510;SDS011;5812;48.864;9.190;2022-11-27T13:29:02;3.77;;;3.77;;
11510;SDS011;5812;48.864;9.190;2022-11-27T13:31:53;4.60;;;4.60;;
11510;SDS011;5812;48.864;9.190;2022-11-27T13:34:22;4.43;;;4.43;;
11510;SDS011;5812;48.864;9.190;2022-11-27T13:37:08;5.00;;;5.00;;
11510;SDS011;5812;48.864;9.190;2022-11-27T13:40:00;5.00;;;5.00;;
11510;SDS011;5812;48.864;9.190;2022-11-27T13:42:50;4.90;;;4.90;;
11510;SDS011;5812;48.864;9.190;2022-11-27T13:45:23;5.37;;;5.37;;
11510;SDS011;5812;48.864;9.190;2022-11-27T13:47:52;4.60;;;4.60;;
11510;SDS011;5812;48.864;9.190;2022-11-27T13:50:21;4.83;;;4.83;;
11510;SDS011;5812;48.864;9.190;2022-11-27T13:53:00;4.97;;;4.97;;
11510;SDS011;5812;48.864;9.190;2022-11-27T13:55:29;4.60;;;4.60;;
11510;SDS011;5812;48.864;9.190;2022-11-27T13:57:56;4.07;;;4.07;;
11510;SDS011;5812;48.864;9.190;2022-11-27T14:00:40;4.10;;;4.10;;
11510;SDS011;5812;48.864;9.190;2022-11-27T14:03:07;4.10;;;4.10;;
11510;SDS011;5812;48.864;9.190;2022-11-27T14:05:49;4.43;;;4.43;;
11510;SDS011;5812;48.864;9.190;2022-11-27T14:08:25;4.57;;;4.57;;
11510;SDS011;5812;48.864;9.190;2022-11-27T14:11:04;4.30;;;4.30;;
11510;SDS011;5812;48.864;9.190;2022-11-27T14:13:55;4.77;;;4.77;;
11510;SDS011;5812;48.864;9.190;2022-11-27T14:16:23;4.87;;;4.87;;
11510;SDS011;5812;48.864;9.190;2022-11-27T14:18:54;4.50;;;4.50;;
11510;SDS011;5812;48.864;9.190;2022-11-27T14:21:23;4.70;;;4.70;;
11510;SDS011;5812;48.864;9.190;2022-11-27T14:26:56;4.63;;;4.63;;
11510;SDS011;5812;48.864;9.190;2022-11-27T14:29:22;4.77;;;4.77;;
11510;SDS011;5812;48.864;9.190;2022-11-27T14:31:56;7.00;;;7.00;;
11510;SDS011;5812;48.864;9.190;2022-11-27T14:34:24;5.33;;;5.33;;
11510;SDS011;5812;48.864;9.190;2022-11-27T14:36:57;4.90;;;4.90;;
11510;SDS011;5812;48.864;9.190;2022-11-27T14:39:30;5.70;;;5.70;;
11510;SDS011;5812;48.864;9.190;2022-11-27T14:42:00;5.30;;;5.30;;
11510;SDS011;5812;48.864;9.190;2022-11-27T14:44:28;5.07;;;5.07;;
11510;SDS011;5812;48.864;9.190;2022-11-27T14:46:54;5.30;;;5.30;;
11510;SDS011;5812;48.864;9.190;2022-11-27T14:49:23;5.10;;;5.10;;
11510;SDS011;5812;48.864;9.190;2022-11-27T14:51:50;5.03;;;5.03;;
11510;SDS011;5812;48.864;9.190;2022-11-27T14:54:28;5.47;;;5.47;;
11510;SDS011;5812;48.864;9.190;2022-11-27T14:56:56;5.10;;;5.10;;
11510;SDS011;5812;48.864;9.190;2022-11-27T14:59:23;5.60;;;5.60;;
11510;SDS011;5812;48.864;9.190;2022-11-27T15:04:28;5.37;;;5.37;;
11510;SDS011;5812;48.864;9.190;2022-11-27T15:06:57;5.30;;;5.30;;
11510;SDS011;5812;48.864;9.190;2022-11-27T15:09:27;5.60;;;5.60;;
11510;SDS011;5812;48.864;9.190;2022-11-27T15:11:58;5.60;;;5.60;;
11510;SDS011;5812;48.864;9.190;2022-11-27T15:14:29;6.50;;;6.50;;
11510;SDS011;5812;48.864;9.190;2022-11-27T15:16:55;7.30;;;7.30;;
11510;SDS011;5812;48.864;9.190;2022-11-27T15:19:29;7.27;;;7.27;;
11510;SDS011;5812;48.864;9.190;2022-11-27T15:21:58;6.67;;;6.67;;
11510;SDS011;5812;48.864;9.190;2022-11-27T15:24:29;7.17;;;7.17;;
11510;SDS011;5812;48.864;9.190;2022-11-27T15:26:54;8.47;;;8.47;;
11510;SDS011;5812;48.864;9.190;2022-11-27T15:29:36;7.60;;;7.60;;
11510;SDS011;5812;48.864;9.190;2022-11-27T15:32:13;6.40;;;6.40;;
11510;SDS011;5812;48.864;9.190;2022-11-27T15:34:41;8.73;;;8.73;;
11510;SDS011;5812;48.864;9.190;2022-11-27T15:37:40;6.23;;;6.23;;
11510;SDS011;5812;48.864;9.190;2022-11-27T15:39:59;7.13;;;7.13;;
11510;SDS011;5812;48.864;9.190;2022-11-27T15:42:26;6.67;;;6.67;;
11510;SDS011;5812;48.864;9.190;2022-11-27T15:44:53;7.03;;;7.03;;
11510;SDS011;5812;48.864;9.190;2022-11-27T15:49:53;5.67;;;5.67;;
11510;SDS011;5812;48.864;9.190;2022-11-27T15:52:19;5.73;;;5.73;;
11510;SDS011;5812;48.864;9.190;2022-11-27T15:54:45;6.23;;;6.23;;
11510;SDS011;5812;48.864;9.190;2022-11-27T15:57:10;6.30;;;6.30;;
11510;SDS011;5812;48.864;9.190;2022-11-27T15:59:36;6.67;;;6.67;;
11510;SDS011;5812;48.864;9.190;2022-11-27T16:02:02;6.00;;;6.00;;
11510;SDS011;5812;48.864;9.190;2022-11-27T16:04:28;6.77;;;6.77;;
11510;SDS011;5812;48.864;9.190;2022-11-27T16:06:53;7.17;;;7.17;;
11510;SDS011;5812;48.864;9.190;2022-11-27T16:09:19;7.50;;;7.50;;
11510;SDS011;5812;48.864;9.190;2022-11-27T16:11:45;6.87;;;6.87;;
11510;SDS011;5812;48.864;9.190;2022-11-27T16:14:11;7.43;;;7.43;;
11510;SDS011;5812;48.864;9.190;2022-11-27T16:16:37;6.47;;;6.47;;
11510;SDS011;5812;48.864;9.190;2022-11-27T16:19:03;6.00;;;6.00;;
11510;SDS011;5812;48.864;9.190;2022-11-27T16:21:30;5.53;;;5.53;;
11510;SDS011;5812;48.864;9.190;2022-11-27T16:23:57;4.97;;;4.97;;
11510;SDS011;5812;48.864;9.190;2022-11-27T16:26:25;5.77;;;5.77;;
11510;SDS011;5812;48.864;9.190;2022-11-27T16:28:51;5.90;;;5.90;;
11510;SDS011;5812;48.864;9.190;2022-11-27T16:31:17;5.60;;;5.60;;
11510;SDS011;5812;48.864;9.190;2022-11-27T16:33:43;6.07;;;6.07;;
11510;SDS011;5812;48.864;9.190;2022-11-27T16:36:12;5.60;;;5.60;;